Time;durP1;ratioP1;P1;durP2;ratioP2;P2;SDS_P1;SDS_P2;PMS_P1;PMS_P2;Temp;Humidity;BMP_temperature;BMP_pressure;BME280_temperature;BME280_humidity;BME280_pressure;Samples;Min_cycle;Max_cycle;Signal;HPM_P1;HPM_P2
2021/11/06 00:00:22;;;;;;;13.07;6.20;;;5.40;99.90;;;;;;5086344;28;20050;-84
2021/11/06 00:02:48;;;;;;;12.33;5.57;;;5.40;99.90;;;;;;5076630;28;20433;-84
2021/11/06 00:05:14;;;;;;;12.27;6.23;;;5.30;99.90;;;;;;5077730;28;20021;-84
2021/11/06 00:07:41;;;;;;;9.87;5.13;;;5.30;99.90;;;;;;5076219;28;20024;-83
2021/11/06 00:10:08;;;;;;;12.00;5.90;;;5.30;99.90;;;;;;5077488;28;20024;-85
2021/11/06 00:12:35;;;;;;;12.30;6.00;;;5.30;99.90;;;;;;5083554;28;20029;-84
2021/11/06 00:15:01;;;;;;;12.50;6.67;;;5.30;99.90;;;;;;5091702;28;20029;-85
2021/11/06 00:17:27;;;;;;;10.57;5.73;;;5.30;99.90;;;;;;5092377;28;20036;-85
2021/11/06 00:19:52;;;;;;;13.50;6.73;;;5.20;99.90;;;;;;5089781;28;20587;-85
2021/11/06 00:22:18;;;;;;;11.93;6.17;;;5.30;99.90;;;;;;5081962;28;20028;-85
2021/11/06 00:24:44;;;;;;;11.90;5.93;;;5.30;99.90;;;;;;5075566;28;20032;-85
2021/11/06 00:27:13;;;;;;;13.83;5.87;;;5.20;99.90;;;;;;5075563;28;20029;-84
2021/11/06 00:29:38;;;;;;;13.13;6.23;;;5.20;99.90;;;;;;5088499;28;20021;-86
2021/11/06 00:32:04;;;;;;;13.20;6.33;;;5.20;99.90;;;;;;5074740;28;20046;-85
2021/11/06 00:34:30;;;;;;;13.33;6.90;;;5.10;99.90;;;;;;5074814;28;20052;-86
2021/11/06 00:36:56;;;;;;;11.47;6.10;;;5.10;99.90;;;;;;5075969;28;20028;-85
2021/11/06 00:39:21;;;;;;;13.93;6.77;;;5.10;99.90;;;;;;5074564;28;20028;-85
2021/11/06 00:41:47;;;;;;;15.67;7.30;;;5.10;99.90;;;;;;5074012;28;20584;-85
2021/11/06 00:44:13;;;;;;;14.67;6.47;;;5.10;99.90;;;;;;5074193;28;20075;-85
2021/11/06 00:46:38;;;;;;;13.90;6.37;;;5.00;99.90;;;;;;5074442;28;20028;-85
2021/11/06 00:49:04;;;;;;;13.77;7.23;;;5.00;99.90;;;;;;5074469;28;20024;-85
2021/11/06 00:51:29;;;;;;;14.30;7.90;;;5.00;99.90;;;;;;5073364;28;20024;-85
2021/11/06 00:53:55;;;;;;;14.57;6.63;;;5.00;99.90;;;;;;5073622;28;20123;-85
2021/11/06 00:56:21;;;;;;;16.30;7.23;;;5.00;99.90;;;;;;5074964;28;20108;-85
2021/11/06 00:58:46;;;;;;;12.03;6.53;;;5.00;99.90;;;;;;5075347;28;20051;-85
2021/11/06 01:01:12;;;;;;;14.50;6.73;;;5.00;99.90;;;;;;5075343;28;20087;-85
2021/11/06 01:03:38;;;;;;;14.13;6.97;;;4.90;99.90;;;;;;5075501;28;20447;-85
2021/11/06 01:06:03;;;;;;;13.07;6.60;;;5.00;99.90;;;;;;5075703;28;20051;-85
2021/11/06 01:08:29;;;;;;;12.20;5.97;;;4.90;99.90;;;;;;5076619;28;20055;-85
2021/11/06 01:10:55;;;;;;;12.20;5.87;;;4.90;99.90;;;;;;5074003;28;20032;-85
2021/11/06 01:13:21;;;;;;;14.47;6.70;;;4.90;99.90;;;;;;5074452;28;20028;-85
2021/11/06 01:15:46;;;;;;;13.17;6.43;;;4.80;99.90;;;;;;5073808;28;20024;-85
2021/11/06 01:18:12;;;;;;;12.73;6.20;;;4.80;99.90;;;;;;5074145;28;20032;-84
2021/11/06 01:20:38;;;;;;;14.20;6.80;;;4.80;99.90;;;;;;5074168;28;20024;-84
2021/11/06 01:23:03;;;;;;;13.63;6.93;;;4.70;99.90;;;;;;5075265;28;20020;-85
2021/11/06 01:25:29;;;;;;;14.00;6.60;;;4.70;99.90;;;;;;5076239;28;20056;-85
2021/11/06 01:27:55;;;;;;;13.77;6.70;;;4.70;99.90;;;;;;5072799;28;20028;-85
2021/11/06 01:30:21;;;;;;;13.07;6.70;;;4.70;99.90;;;;;;5073228;28;20090;-85
2021/11/06 01:32:49;;;;;;;15.70;6.67;;;4.70;99.90;;;;;;5072522;28;20056;-84
2021/11/06 01:35:18;;;;;;;13.13;7.07;;;4.70;99.90;;;;;;5072346;28;20024;-84
2021/11/06 01:37:44;;;;;;;13.23;6.80;;;4.60;99.90;;;;;;5075964;28;20646;-84
2021/11/06 01:40:12;;;;;;;13.77;6.87;;;4.60;99.90;;;;;;5073325;28;20077;-84
2021/11/06 01:42:41;;;;;;;13.13;6.77;;;4.60;99.90;;;;;;5073696;28;20036;-84
2021/11/06 01:45:08;;;;;;;15.17;6.70;;;4.60;99.90;;;;;;5073434;28;20036;-84
2021/11/06 01:47:35;;;;;;;11.93;6.77;;;4.60;99.90;;;;;;5074341;28;20040;-84
2021/11/06 01:50:00;;;;;;;14.00;6.23;;;4.60;99.90;;;;;;5072300;28;20024;-84
2021/11/06 01:52:26;;;;;;;10.80;5.77;;;4.60;99.90;;;;;;5073126;28;20055;-84
2021/11/06 01:54:52;;;;;;;14.80;6.50;;;4.60;99.90;;;;;;5074321;28;20080;-83
2021/11/06 01:57:18;;;;;;;11.07;5.83;;;4.50;99.90;;;;;;5072470;28;20036;-85
2021/11/06 01:59:45;;;;;;;12.30;6.73;;;4.50;99.90;;;;;;5072696;28;20037;-83
2021/11/06 02:02:11;;;;;;;13.10;6.43;;;4.50;99.90;;;;;;5075792;28;20058;-81
2021/11/06 02:04:38;;;;;;;13.57;6.70;;;4.40;99.90;;;;;;5085693;28;20087;-83
2021/11/06 02:07:04;;;;;;;11.57;5.97;;;4.50;99.90;;;;;;5087393;28;20024;-82
2021/11/06 02:09:30;;;;;;;12.73;6.50;;;4.50;99.90;;;;;;5088364;28;20036;-82
2021/11/06 02:11:57;;;;;;;11.03;5.90;;;4.40;99.90;;;;;;5080873;28;20036;-83
2021/11/06 02:14:23;;;;;;;12.87;6.70;;;4.50;99.90;;;;;;5073469;28;20055;-84
2021/11/06 02:16:51;;;;;;;11.20;5.63;;;4.40;99.90;;;;;;5074186;28;20499;-83
2021/11/06 02:19:17;;;;;;;14.13;5.70;;;4.40;99.90;;;;;;5072294;28;20028;-83
2021/11/06 02:21:44;;;;;;;13.63;6.43;;;4.40;99.90;;;;;;5084555;28;20033;-83
2021/11/06 02:24:10;;;;;;;13.50;5.90;;;4.40;99.90;;;;;;5072598;28;20040;-83
2021/11/06 02:26:36;;;;;;;10.87;5.37;;;4.40;99.90;;;;;;5072115;28;20020;-83
2021/11/06 02:29:04;;;;;;;11.03;5.80;;;4.30;99.90;;;;;;5073098;28;20028;-84
2021/11/06 02:31:30;;;;;;;14.53;6.13;;;4.30;99.90;;;;;;5071085;28;20029;-84
2021/11/06 02:33:57;;;;;;;9.60;5.07;;;4.30;99.90;;;;;;5071906;28;20090;-83
2021/11/06 02:36:23;;;;;;;13.33;5.53;;;4.20;99.90;;;;;;5071190;28;20036;-83
2021/11/06 02:38:49;;;;;;;21.70;6.33;;;4.20;99.90;;;;;;5069249;28;20120;-83
2021/11/06 02:41:15;;;;;;;16.63;5.60;;;4.20;99.90;;;;;;5071567;28;20029;-83
2021/11/06 02:43:40;;;;;;;19.93;6.63;;;4.10;99.90;;;;;;5071760;28;20489;-83
2021/11/06 02:46:06;;;;;;;13.20;5.90;;;4.10;99.90;;;;;;5072997;28;20522;-83
2021/11/06 02:48:31;;;;;;;17.37;6.47;;;4.10;99.90;;;;;;5072172;28;20028;-83
2021/11/06 02:50:57;;;;;;;16.13;5.87;;;4.10;99.90;;;;;;5070248;28;20085;-84
2021/11/06 02:53:23;;;;;;;19.23;6.40;;;4.10;99.90;;;;;;5071722;28;20139;-83
2021/11/06 02:55:49;;;;;;;16.17;5.83;;;4.10;99.90;;;;;;5071074;28;20032;-83
2021/11/06 02:58:15;;;;;;;18.40;5.70;;;4.10;99.90;;;;;;5071819;28;20036;-83
2021/11/06 03:00:41;;;;;;;27.97;5.47;;;4.10;99.90;;;;;;5072018;28;20528;-83
2021/11/06 03:03:07;;;;;;;18.43;5.63;;;4.00;99.90;;;;;;5071774;28;20025;-83
2021/11/06 03:05:32;;;;;;;12.87;5.20;;;4.00;99.90;;;;;;5071265;28;20032;-84
2021/11/06 03:07:59;;;;;;;19.23;4.97;;;4.00;99.90;;;;;;5073371;28;20028;-83
2021/11/06 03:10:25;;;;;;;13.10;5.10;;;4.00;99.90;;;;;;5071748;28;20025;-83
2021/11/06 03:12:52;;;;;;;21.40;4.70;;;3.90;99.90;;;;;;5070947;28;20449;-83
2021/11/06 03:15:18;;;;;;;13.67;4.40;;;3.90;99.90;;;;;;5073004;28;20511;-83
2021/11/06 03:17:43;;;;;;;31.63;5.33;;;3.90;99.90;;;;;;5070825;28;20103;-83
2021/11/06 03:20:11;;;;;;;12.63;4.00;;;3.90;99.90;;;;;;5071317;28;20370;-83
2021/11/06 03:22:36;;;;;;;27.13;4.73;;;3.90;99.90;;;;;;5080214;28;20032;-83
2021/11/06 03:25:05;;;;;;;19.60;4.13;;;3.80;99.90;;;;;;5093087;28;20051;-82
2021/11/06 03:27:31;;;;;;;14.17;4.37;;;3.70;99.90;;;;;;5093148;28;20110;-82
2021/11/06 03:29:56;;;;;;;21.37;4.00;;;3.70;99.90;;;;;;5091566;28;20012;-82
2021/11/06 03:32:22;;;;;;;8.53;3.83;;;3.60;99.90;;;;;;5090185;28;20401;-84
2021/11/06 03:34:48;;;;;;;29.13;3.87;;;3.70;99.90;;;;;;5071872;28;20027;-84
2021/11/06 03:37:14;;;;;;;10.33;3.80;;;3.70;99.90;;;;;;5070631;28;20087;-84
2021/11/06 03:39:39;;;;;;;27.93;4.33;;;3.60;99.90;;;;;;5071969;28;20529;-85
2021/11/06 03:42:06;;;;;;;13.77;3.60;;;3.70;99.90;;;;;;5071144;28;20830;-83
2021/11/06 03:44:33;;;;;;;16.73;4.37;;;3.70;99.90;;;;;;5072502;28;20032;-83
2021/11/06 03:46:59;;;;;;;13.63;3.87;;;3.70;99.90;;;;;;5072162;28;20028;-84
2021/11/06 03:49:25;;;;;;;11.27;3.67;;;3.70;99.90;;;;;;5070741;28;20052;-83
2021/11/06 03:51:51;;;;;;;19.03;4.33;;;3.70;99.90;;;;;;5069564;28;20070;-84
2021/11/06 03:54:17;;;;;;;12.90;3.80;;;3.60;99.90;;;;;;5071491;28;20037;-83
2021/11/06 03:56:43;;;;;;;11.50;4.10;;;3.60;99.90;;;;;;5073144;28;20090;-84
2021/11/06 03:59:09;;;;;;;8.23;3.40;;;3.60;99.90;;;;;;5070935;28;20036;-84
2021/11/06 04:01:35;;;;;;;12.73;3.73;;;3.60;99.90;;;;;;5069489;28;20079;-84
2021/11/06 04:04:02;;;;;;;7.53;3.60;;;3.60;99.90;;;;;;5073668;28;20047;-84
2021/11/06 04:06:31;;;;;;;19.37;4.37;;;3.60;99.90;;;;;;5074415;28;20063;-87
2021/11/06 04:12:08;;;;;;;8.83;3.43;;;3.60;99.90;;;;;;5028959;28;20029;-92
2021/11/06 04:14:34;;;;;;;8.30;3.63;;;3.60;99.90;;;;;;5051509;28;20101;-92
2021/11/06 04:17:03;;;;;;;8.03;3.67;;;3.60;99.90;;;;;;5048180;28;20036;-92
2021/11/06 04:19:32;;;;;;;11.63;4.07;;;3.70;99.90;;;;;;5019912;28;20021;-93
2021/11/06 04:22:01;;;;;;;16.27;4.27;;;3.80;99.90;;;;;;5017715;28;20022;-92
2021/11/06 04:24:39;;;;;;;16.30;4.20;;;3.60;99.90;;;;;;5023485;28;20117;-92
2021/11/06 04:30:33;;;;;;;10.43;3.80;;;3.50;99.90;;;;;;5017329;28;20099;-92
2021/11/06 04:33:25;;;;;;;14.13;3.60;;;3.50;99.90;;;;;;5034619;28;20022;-92
2021/11/06 04:35:59;;;;;;;11.20;3.22;;;3.50;99.90;;;;;;5039073;28;20025;-92
2021/11/06 04:38:28;;;;;;;12.57;4.30;;;3.50;99.90;;;;;;5034679;28;20030;-92
2021/11/06 04:41:01;;;;;;;17.10;3.73;;;3.50;99.90;;;;;;5014088;28;20030;-92
2021/11/06 04:43:55;;;;;;;7.88;3.88;;;3.50;99.90;;;;;;5034830;28;20116;-92
2021/11/06 04:46:45;;;;;;;11.70;3.73;;;3.30;99.90;;;;;;5035901;28;20106;-93
2021/11/06 04:49:34;;;;;;;15.00;3.77;;;4.20;99.90;;;;;;5030384;28;20052;-92
2021/11/06 04:52:25;;;;;;;9.23;3.27;;;2.30;99.90;;;;;;5009202;28;20049;-91
2021/11/06 04:55:00;;;;;;;6.73;3.40;;;3.90;99.90;;;;;;5006456;28;20026;-91
2021/11/06 05:01:09;;;;;;;13.10;3.30;;;2.90;99.90;;;;;;5007415;28;20443;-92
2021/11/06 05:03:47;;;;;;;10.43;3.53;;;3.90;99.90;;;;;;5033076;28;21307;-92
2021/11/06 05:06:27;;;;;;;8.67;3.50;;;3.30;99.90;;;;;;5013219;28;20017;-91
2021/11/06 05:09:10;;;;;;;23.27;3.83;;;3.20;99.90;;;;;;5014038;28;20061;-91
2021/11/06 05:12:19;;;;;;;53.77;4.37;;;3.40;99.90;;;;;;5015001;28;20038;-91
2021/11/06 05:17:54;;;;;;;25.80;3.57;;;2.90;99.90;;;;;;5021041;28;20096;-91
2021/11/06 05:20:20;;;;;;;19.43;3.23;;;2.80;99.90;;;;;;5021014;28;20022;-91
2021/11/06 05:23:03;;;;;;;19.03;3.37;;;2.90;99.90;;;;;;5025365;28;20827;-91
2021/11/06 05:26:20;;;;;;;10.73;3.33;;;2.90;99.90;;;;;;5026567;28;20033;-91
2021/11/06 05:32:30;;;;;;;18.77;3.57;;;2.90;99.90;;;;;;5001433;28;20395;-91
2021/11/06 05:34:57;;;;;;;7.40;3.17;;;2.90;99.90;;;;;;5030665;28;20031;-91
2021/11/06 05:37:27;;;;;;;49.03;3.87;;;3.00;99.90;;;;;;5045738;22;20048;-92
2021/11/06 05:40:01;;;;;;;39.37;4.27;;;2.90;99.90;;;;;;5052019;28;20026;-91
2021/11/06 05:45:33;;;;;;;16.33;3.17;;;2.70;99.90;;;;;;5034980;28;20028;-92
2021/11/06 05:47:59;;;;;;;5.73;2.37;;;3.20;99.90;;;;;;5027463;28;20112;-92
2021/11/06 05:50:25;;;;;;;23.80;3.87;;;2.20;99.90;;;;;;5022961;28;20109;-92
2021/11/06 05:53:05;;;;;;;48.63;4.20;;;2.40;99.90;;;;;;5004282;28;20046;-91
2021/11/06 05:55:30;;;;;;;33.53;3.37;;;2.50;99.90;;;;;;5030989;28;20103;-92
2021/11/06 05:57:56;;;;;;;65.23;4.53;;;2.60;99.90;;;;;;5042836;28;20025;-92
2021/11/06 06:00:33;;;;;;;21.37;3.60;;;2.50;99.90;;;;;;5026060;28;20534;-92
2021/11/06 06:03:02;;;;;;;47.67;4.10;;;2.60;99.90;;;;;;5018495;28;20104;-92
2021/11/06 06:05:28;;;;;;;27.47;3.10;;;2.70;99.90;;;;;;5029471;28;20394;-92
2021/11/06 06:08:02;;;;;;;54.43;4.63;;;2.70;99.90;;;;;;5026606;28;20021;-91
2021/11/06 06:10:28;;;;;;;42.70;3.70;;;3.00;99.90;;;;;;5022890;28;20021;-91
2021/11/06 06:12:53;;;;;;;36.37;4.03;;;2.70;99.90;;;;;;5024217;28;20024;-91
2021/11/06 06:15:23;;;;;;;32.93;3.33;;;2.70;99.90;;;;;;5026412;28;20030;-92
2021/11/06 06:17:51;;;;;;;41.23;4.23;;;2.70;99.90;;;;;;5022276;28;20022;-91
2021/11/06 06:20:17;;;;;;;42.77;4.17;;;2.70;99.90;;;;;;5023049;28;20204;-92
2021/11/06 06:22:46;;;;;;;56.93;4.10;;;2.70;99.90;;;;;;5040337;28;20498;-91
2021/11/06 06:25:13;;;;;;;60.57;4.13;;;3.00;99.90;;;;;;5023910;28;20026;-91
2021/11/06 06:27:40;;;;;;;46.10;3.57;;;2.70;99.90;;;;;;5021630;28;20446;-91
2021/11/06 06:30:08;;;;;;;45.97;3.70;;;2.60;99.90;;;;;;5023491;28;20040;-91
2021/11/06 06:32:35;;;;;;;57.40;3.80;;;2.60;99.90;;;;;;5018201;28;20049;-91
2021/11/06 06:40:53;;;;;;;44.87;3.60;;;2.30;99.90;;;;;;5058434;28;20049;-91
2021/11/06 06:43:18;;;;;;;28.67;3.13;;;2.20;99.90;;;;;;5063306;28;20105;-90
2021/11/06 06:45:44;;;;;;;35.10;3.17;;;2.30;99.90;;;;;;5071039;28;20082;-90
2021/11/06 06:48:09;;;;;;;28.80;3.13;;;2.30;99.90;;;;;;5068728;28;20017;-90
2021/11/06 06:50:35;;;;;;;26.07;3.43;;;2.30;99.90;;;;;;5056909;28;21033;-90
2021/11/06 06:53:06;;;;;;;29.90;3.13;;;2.30;99.90;;;;;;5057455;28;20020;-90
2021/11/06 06:55:31;;;;;;;29.10;3.17;;;2.40;99.90;;;;;;5062609;28;20021;-90
2021/11/06 06:57:57;;;;;;;26.80;3.03;;;3.20;99.90;;;;;;5055165;28;20027;-90
2021/11/06 07:00:23;;;;;;;28.93;3.90;;;2.50;99.90;;;;;;5059076;28;20415;-90
2021/11/06 07:02:49;;;;;;;32.27;4.03;;;2.60;99.90;;;;;;5068170;28;20118;-91
2021/11/06 07:05:14;;;;;;;26.40;3.07;;;2.60;99.90;;;;;;5062966;28;20493;-91
2021/11/06 07:07:42;;;;;;;33.47;3.83;;;2.50;99.90;;;;;;5062525;28;20021;-90
2021/11/06 07:10:08;;;;;;;22.80;2.97;;;3.00;99.90;;;;;;5060136;28;20196;-91
2021/11/06 07:12:34;;;;;;;23.30;3.67;;;2.60;99.90;;;;;;5065750;28;20115;-91
2021/11/06 07:15:00;;;;;;;27.20;2.97;;;2.40;99.90;;;;;;5066446;28;20123;-91
2021/11/06 07:17:25;;;;;;;14.17;2.70;;;2.50;99.90;;;;;;5062366;28;20040;-91
2021/11/06 07:20:07;;;;;;;22.60;3.43;;;2.60;99.90;;;;;;5059215;28;20369;-91
2021/11/06 07:22:33;;;;;;;31.48;3.13;;;2.80;99.90;;;;;;5059825;28;20492;-91
2021/11/06 07:24:59;;;;;;;11.13;3.37;;;2.70;99.90;;;;;;5060431;28;20112;-91
2021/11/06 07:27:24;;;;;;;17.43;3.57;;;2.90;99.90;;;;;;5063966;28;20067;-91
2021/11/06 07:30:14;;;;;;;39.47;4.77;;;2.80;99.90;;;;;;5070130;28;20384;-91
2021/11/06 07:32:40;;;;;;;23.10;4.50;;;2.80;99.90;;;;;;5065318;28;20112;-91
2021/11/06 07:35:08;;;;;;;13.07;3.97;;;2.80;99.90;;;;;;5063847;28;20111;-91
2021/11/06 07:37:36;;;;;;;23.10;4.27;;;2.90;99.90;;;;;;5054460;28;20029;-91
2021/11/06 07:40:03;;;;;;;26.10;3.77;;;3.00;99.90;;;;;;5065355;28;20032;-92
2021/11/06 07:42:30;;;;;;;28.77;3.80;;;3.10;99.90;;;;;;5065432;28;20048;-90
2021/11/06 07:44:55;;;;;;;20.43;3.63;;;3.20;99.90;;;;;;5059736;28;20094;-91
2021/11/06 07:47:21;;;;;;;22.97;3.83;;;3.10;99.90;;;;;;5056021;28;20029;-92
2021/11/06 07:49:47;;;;;;;31.40;3.67;;;3.00;99.90;;;;;;5065850;28;20025;-91
2021/11/06 07:52:12;;;;;;;33.60;3.50;;;3.00;99.90;;;;;;5054608;28;20025;-90
2021/11/06 07:54:38;;;;;;;42.00;3.37;;;3.00;99.90;;;;;;5054248;28;20538;-91
2021/11/06 07:57:11;;;;;;;101.87;6.17;;;3.30;99.90;;;;;;5056382;28;20032;-91
2021/11/06 07:59:36;;;;;;;49.53;4.07;;;3.30;99.90;;;;;;5061101;28;20583;-91
2021/11/06 08:02:02;;;;;;;10.53;2.47;;;3.00;99.90;;;;;;5071752;28;20073;-92
2021/11/06 08:04:28;;;;;;;9.23;2.63;;;3.20;99.90;;;;;;5062804;28;20121;-91
2021/11/06 08:06:53;;;;;;;24.57;3.13;;;3.50;99.90;;;;;;5058587;28;20053;-91
2021/11/06 08:09:21;;;;;;;53.40;4.03;;;3.40;99.90;;;;;;5069995;28;20044;-90
2021/11/06 08:11:46;;;;;;;14.37;3.67;;;3.30;99.90;;;;;;5059342;28;20030;-91
2021/11/06 08:14:22;;;;;;;21.37;3.67;;;3.40;99.90;;;;;;5064595;28;20118;-90
2021/11/06 08:16:51;;;;;;;19.73;3.50;;;3.40;99.90;;;;;;5063630;28;20029;-90
2021/11/06 08:19:17;;;;;;;39.50;4.00;;;3.50;99.90;;;;;;5065383;28;20032;-92
2021/11/06 08:21:43;;;;;;;10.77;3.57;;;3.50;99.90;;;;;;5069146;28;20496;-91
2021/11/06 08:24:13;;;;;;;19.13;3.90;;;3.60;99.90;;;;;;5070236;28;20489;-90
2021/11/06 08:26:52;;;;;;;12.70;2.93;;;3.70;99.90;;;;;;5066890;28;20013;-91
2021/11/06 08:29:18;;;;;;;26.17;3.87;;;4.10;99.90;;;;;;5065692;28;20067;-91
2021/11/06 08:31:44;;;;;;;14.10;3.67;;;4.10;99.90;;;;;;5065868;28;20060;-89
2021/11/06 08:34:10;;;;;;;9.30;2.87;;;4.10;99.90;;;;;;5071086;28;20552;-89
2021/11/06 08:36:37;;;;;;;11.80;3.00;;;4.00;99.90;;;;;;5052299;28;20020;-89
2021/11/06 08:39:07;;;;;;;7.43;2.87;;;4.00;99.90;;;;;;5063564;28;20082;-89
2021/11/06 08:41:35;;;;;;;21.10;3.77;;;4.10;99.90;;;;;;5069159;28;20021;-88
2021/11/06 08:44:01;;;;;;;15.17;3.23;;;4.20;99.90;;;;;;5071122;28;20021;-89
2021/11/06 08:46:26;;;;;;;19.70;2.63;;;4.30;99.90;;;;;;5054144;28;20032;-89
2021/11/06 08:48:53;;;;;;;13.67;3.13;;;3.80;99.90;;;;;;5069780;28;20100;-88
2021/11/06 08:51:22;;;;;;;10.37;2.80;;;3.80;99.90;;;;;;5067802;28;20055;-89
2021/11/06 08:53:49;;;;;;;23.00;3.27;;;3.80;99.90;;;;;;5064717;28;20024;-89
2021/11/06 08:56:18;;;;;;;25.33;3.90;;;4.10;99.90;;;;;;5063331;28;20025;-90
2021/11/06 08:58:44;;;;;;;26.90;3.57;;;4.30;99.90;;;;;;5062137;28;20064;-89
2021/11/06 09:01:11;;;;;;;22.23;3.17;;;3.80;99.90;;;;;;5065108;28;20078;-90
2021/11/06 09:03:39;;;;;;;14.50;3.23;;;3.80;99.90;;;;;;5068379;28;20040;-91
2021/11/06 09:06:07;;;;;;;22.13;3.13;;;3.80;99.90;;;;;;5071498;28;20036;-91
2021/11/06 09:08:35;;;;;;;70.57;4.67;;;3.80;99.90;;;;;;5064667;28;20033;-90
2021/11/06 09:11:09;;;;;;;21.47;2.90;;;3.90;99.90;;;;;;5063568;28;20115;-90
2021/11/06 09:13:34;;;;;;;28.90;3.20;;;3.70;99.90;;;;;;5069659;28;20020;-91
2021/11/06 09:16:03;;;;;;;38.73;3.50;;;3.70;99.90;;;;;;5072105;28;20029;-91
2021/11/06 09:18:34;;;;;;;12.30;3.00;;;3.70;99.90;;;;;;5072685;28;20035;-91
2021/11/06 09:21:04;;;;;;;18.20;3.50;;;3.80;99.90;;;;;;5051881;28;20033;-92
2021/11/06 09:23:32;;;;;;;12.07;2.93;;;3.90;99.90;;;;;;5057697;28;20025;-92
2021/11/06 09:26:06;;;;;;;63.63;5.17;;;4.00;99.90;;;;;;5071638;28;20031;-91
2021/11/06 09:28:49;;;;;;;17.87;3.60;;;3.90;99.90;;;;;;5070650;28;20042;-89
2021/11/06 09:31:17;;;;;;;19.77;3.43;;;4.10;99.90;;;;;;5073874;28;20025;-91
2021/11/06 09:33:47;;;;;;;22.23;3.53;;;4.40;99.90;;;;;;5073916;28;20468;-91
2021/11/06 09:36:13;;;;;;;14.70;3.80;;;4.40;99.90;;;;;;5074155;28;20040;-91
2021/11/06 09:38:42;;;;;;;78.93;4.80;;;4.60;99.90;;;;;;5073480;28;20366;-91
2021/11/06 09:41:12;;;;;;;73.03;4.73;;;4.40;99.90;;;;;;5072153;28;20123;-92
2021/11/06 09:43:48;;;;;;;62.17;5.10;;;4.30;99.90;;;;;;5074004;28;20024;-91
2021/11/06 09:46:14;;;;;;;37.60;4.30;;;4.10;99.90;;;;;;5074298;28;20052;-91
2021/11/06 09:48:43;;;;;;;72.00;5.10;;;4.20;99.90;;;;;;5059196;28;20500;-91
2021/11/06 09:51:09;;;;;;;56.90;4.40;;;4.10;99.90;;;;;;5074136;28;20032;-90
2021/11/06 09:53:40;;;;;;;57.43;4.97;;;4.00;99.90;;;;;;5075412;28;20477;-92
2021/11/06 09:56:20;;;;;;;59.43;4.90;;;4.00;99.90;;;;;;5072866;28;20074;-91
2021/11/06 09:58:49;;;;;;;58.17;5.17;;;4.00;99.90;;;;;;5053510;28;20426;-91
2021/11/06 10:01:16;;;;;;;216.87;9.40;;;4.20;99.90;;;;;;5059555;28;20041;-91
2021/11/06 10:03:42;;;;;;;51.67;5.17;;;4.10;99.90;;;;;;5064428;28;20017;-91
2021/11/06 10:06:23;;;;;;;21.30;4.10;;;4.50;99.90;;;;;;5057800;28;20036;-92
2021/11/06 10:08:51;;;;;;;66.53;5.67;;;4.50;99.90;;;;;;5073806;23;20045;-89
2021/11/06 10:11:20;;;;;;;32.53;4.50;;;4.60;99.90;;;;;;5070469;28;20024;-88
2021/11/06 10:14:02;;;;;;;44.43;5.10;;;4.70;99.90;;;;;;5070922;28;20115;-87
2021/11/06 10:16:33;;;;;;;69.10;6.40;;;4.80;99.90;;;;;;5099153;28;20028;-90
2021/11/06 10:19:11;;;;;;;82.20;6.37;;;4.90;99.90;;;;;;5093918;28;20077;-89
2021/11/06 10:21:39;;;;;;;63.43;5.57;;;5.00;99.90;;;;;;5078685;28;20391;-89
2021/11/06 10:24:05;;;;;;;47.13;5.63;;;5.00;99.90;;;;;;5079100;28;20062;-88
2021/11/06 10:26:31;;;;;;;59.43;6.03;;;5.00;99.90;;;;;;5070136;28;20020;-89
2021/11/06 10:29:14;;;;;;;25.13;5.30;;;5.00;99.90;;;;;;5069552;28;20050;-89
2021/11/06 10:31:59;;;;;;;49.78;5.72;;;4.90;99.90;;;;;;5043662;28;20512;-89
2021/11/06 10:34:31;;;;;;;35.63;6.63;;;5.00;99.90;;;;;;5056807;28;20036;-88
2021/11/06 10:37:05;;;;;;;36.13;5.85;;;5.20;99.90;;;;;;5054759;28;20016;-89
2021/11/06 10:39:32;;;;;;;21.37;5.90;;;5.40;99.90;;;;;;5070523;28;20029;-88
2021/11/06 10:42:13;;;;;;;57.63;6.27;;;5.40;99.90;;;;;;5066908;28;20030;-88
2021/11/06 10:44:40;;;;;;;70.47;7.43;;;5.50;99.90;;;;;;5053351;28;20032;-88
2021/11/06 10:47:07;;;;;;;61.77;6.83;;;5.80;99.90;;;;;;5054166;28;20016;-89
2021/11/06 10:49:46;;;;;;;26.87;5.67;;;5.50;99.90;;;;;;5069969;28;20027;-89
2021/11/06 10:52:17;;;;;;;80.63;6.70;;;5.60;99.90;;;;;;5070408;28;20032;-89
2021/11/06 10:55:00;;;;;;;62.83;6.37;;;5.60;99.90;;;;;;5070598;28;20028;-88
2021/11/06 10:57:26;;;;;;;39.77;6.33;;;5.60;99.90;;;;;;5070821;28;20028;-89
2021/11/06 11:00:10;;;;;;;20.07;5.47;;;5.60;99.90;;;;;;5050105;28;20039;-88
2021/11/06 11:02:37;;;;;;;38.00;5.93;;;5.70;99.90;;;;;;5065872;28;20397;-88
2021/11/06 11:05:04;;;;;;;17.27;6.13;;;5.70;99.90;;;;;;5052190;28;20032;-88
2021/11/06 11:07:30;;;;;;;34.20;6.17;;;5.70;99.90;;;;;;5049289;28;20028;-88
2021/11/06 11:09:56;;;;;;;17.40;6.37;;;5.70;99.90;;;;;;5040431;28;20025;-88
2021/11/06 11:12:23;;;;;;;18.57;7.30;;;5.80;99.90;;;;;;5035432;28;20031;-88
2021/11/06 11:14:52;;;;;;;32.50;7.40;;;5.90;99.90;;;;;;5033219;28;20025;-89
2021/11/06 11:17:18;;;;;;;18.10;6.90;;;6.00;99.90;;;;;;5043743;28;20075;-88
2021/11/06 11:19:46;;;;;;;32.70;7.73;;;6.10;99.90;;;;;;5032678;28;20037;-89
2021/11/06 11:22:29;;;;;;;18.70;7.07;;;6.10;99.90;;;;;;5032133;28;20128;-88
2021/11/06 11:24:56;;;;;;;20.97;7.27;;;6.10;99.90;;;;;;5034602;28;20025;-88
2021/11/06 11:27:23;;;;;;;17.70;7.77;;;5.90;99.90;;;;;;5034772;28;20371;-88
2021/11/06 11:29:49;;;;;;;21.77;7.67;;;6.00;99.90;;;;;;5051553;28;20021;-89
2021/11/06 11:32:16;;;;;;;21.90;7.30;;;6.00;99.90;;;;;;5037663;28;20040;-88
2021/11/06 11:34:47;;;;;;;25.00;8.40;;;6.20;99.90;;;;;;5056841;28;20029;-88
2021/11/06 11:37:14;;;;;;;44.23;7.53;;;6.10;99.90;;;;;;5051859;28;20580;-88
2021/11/06 11:39:40;;;;;;;15.47;7.60;;;5.80;99.90;;;;;;5069702;28;20029;-88
2021/11/06 11:42:06;;;;;;;25.17;7.63;;;5.90;99.90;;;;;;5070416;28;20139;-88
2021/11/06 11:44:53;;;;;;;19.37;8.43;;;6.00;99.90;;;;;;5052737;28;20474;-89
2021/11/06 11:47:28;;;;;;;18.57;7.93;;;6.10;99.90;;;;;;5053828;28;20104;-88
2021/11/06 11:49:57;;;;;;;19.87;8.33;;;6.20;99.90;;;;;;5044431;28;20029;-88
2021/11/06 11:52:38;;;;;;;41.57;9.10;;;6.30;99.90;;;;;;5047376;28;20069;-88
2021/11/06 11:55:12;;;;;;;19.23;7.97;;;6.30;99.90;;;;;;5048245;28;20036;-87
2021/11/06 11:57:42;;;;;;;26.67;8.57;;;6.30;99.90;;;;;;5052562;28;20032;-88
2021/11/06 12:00:17;;;;;;;17.03;7.63;;;6.10;99.90;;;;;;5053608;28;20028;-88
2021/11/06 12:03:03;;;;;;;22.83;8.60;;;6.10;99.90;;;;;;5047047;28;20025;-88
2021/11/06 12:05:36;;;;;;;16.83;7.73;;;6.20;99.90;;;;;;5047518;28;20138;-87
2021/11/06 12:08:10;;;;;;;;;;;6.40;99.90;;;;;;5064521;28;20029;-88
2021/11/06 12:10:37;;;;;;;23.10;8.07;;;6.40;99.90;;;;;;5043330;28;19912;-87
2021/11/06 12:13:04;;;;;;;21.37;9.00;;;6.50;99.90;;;;;;5050644;28;20043;-88
2021/11/06 12:15:55;;;;;;;23.60;9.23;;;6.60;99.90;;;;;;5051236;28;20029;-87
2021/11/06 12:18:32;;;;;;;19.93;9.50;;;6.60;99.90;;;;;;5051201;28;20031;-87
2021/11/06 12:23:37;;;;;;;18.00;8.30;;;6.90;99.90;;;;;;5068205;28;20116;-87
2021/11/06 12:26:30;;;;;;;22.80;9.83;;;6.90;99.90;;;;;;5051900;28;20013;-87
2021/11/06 12:29:15;;;;;;;17.98;8.60;;;7.10;99.90;;;;;;5068359;28;20017;-87
2021/11/06 12:31:43;;;;;;;17.17;8.50;;;7.20;99.90;;;;;;5041972;28;20583;-87
2021/11/06 12:34:31;;;;;;;16.60;7.73;;;7.30;99.90;;;;;;5068270;28;20024;-89
2021/11/06 12:36:57;;;;;;;18.70;8.83;;;7.40;99.90;;;;;;5015982;28;20037;-88
2021/11/06 12:39:53;;;;;;;17.20;8.67;;;7.40;99.90;;;;;;5045845;28;20089;-89
2021/11/06 12:42:22;;;;;;;17.97;7.73;;;7.40;99.90;;;;;;5063648;28;20063;-88
2021/11/06 12:44:51;;;;;;;17.67;9.00;;;7.40;99.90;;;;;;5057730;28;20021;-87
2021/11/06 12:47:17;;;;;;;19.87;9.20;;;7.30;99.90;;;;;;5066887;28;20016;-88
2021/11/06 12:49:44;;;;;;;19.33;9.00;;;7.30;99.90;;;;;;5044179;28;20044;-88
2021/11/06 12:52:12;;;;;;;20.00;9.37;;;7.40;99.90;;;;;;5070547;28;20024;-90
2021/11/06 12:54:38;;;;;;;21.77;10.10;;;7.50;99.90;;;;;;5054875;28;20054;-85
2021/11/06 12:57:04;;;;;;;17.00;8.57;;;7.50;99.90;;;;;;5070049;28;20039;-87
2021/11/06 12:59:30;;;;;;;17.77;8.40;;;7.60;99.90;;;;;;5069157;28;20043;-85
2021/11/06 13:02:01;;;;;;;18.93;8.80;;;7.70;99.90;;;;;;5067697;28;20035;-86
2021/11/06 13:04:29;;;;;;;16.00;8.27;;;7.80;99.90;;;;;;5066840;28;20084;-90
2021/11/06 13:06:57;;;;;;;17.57;8.93;;;7.70;99.90;;;;;;5068262;28;20040;-90
2021/11/06 13:09:29;;;;;;;21.40;8.63;;;7.80;99.90;;;;;;5070798;28;20025;-89
2021/11/06 13:12:02;;;;;;;19.70;10.02;;;7.80;99.90;;;;;;5074955;28;20020;-90
2021/11/06 13:14:38;;;;;;;18.17;8.57;;;7.90;99.90;;;;;;5073579;28;20037;-85
2021/11/06 13:17:11;;;;;;;17.90;9.10;;;7.80;99.90;;;;;;5085780;28;20017;-90
2021/11/06 13:20:09;;;;;;;18.07;8.87;;;8.00;99.90;;;;;;5068563;28;20028;-88
2021/11/06 13:22:44;;;;;;;19.40;9.07;;;8.00;99.90;;;;;;5066764;28;20020;-88
2021/11/06 13:25:13;;;;;;;17.80;9.30;;;8.30;99.90;;;;;;5055429;28;20578;-88
2021/11/06 13:27:47;;;;;;;16.07;8.90;;;8.40;99.90;;;;;;5066084;28;20021;-88